sensor_id;sensor_type;location;lat;lon;timestamp;temperature;humidity
1225;DHT22;602;48.000;7.840;2022-07-29T00:01:31;21.00;99.90
1225;DHT22;602;48.000;7.840;2022-07-29T00:03:58;21.00;99.90
1225;DHT22;602;48.000;7.840;2022-07-29T00:06:25;20.90;99.90
1225;DHT22;602;48.000;7.840;2022-07-29T00:08:52;20.90;99.90
1225;DHT22;602;48.000;7.840;2022-07-29T00:11:19;20.80;99.90
1225;DHT22;602;48.000;7.840;2022-07-29T00:13:46;20.80;99.90
1225;DHT22;602;48.000;7.840;2022-07-29T00:16:14;20.90;99.90
1225;DHT22;602;48.000;7.840;2022-07-29T00:18:41;21.00;99.90
1225;DHT22;602;48.000;7.840;2022-07-29T00:21:07;21.00;99.90
1225;DHT22;602;48.000;7.840;2022-07-29T00:23:34;21.00;99.90
1225;DHT22;602;48.000;7.840;2022-07-29T00:26:02;21.00;99.90
1225;DHT22;602;48.000;7.840;2022-07-29T00:28:28;21.00;99.90
1225;DHT22;602;48.000;7.840;2022-07-29T00:30:55;21.10;99.90
1225;DHT22;602;48.000;7.840;2022-07-29T00:33:24;21.20;99.90
1225;DHT22;602;48.000;7.840;2022-07-29T00:35:50;21.10;99.90
1225;DHT22;602;48.000;7.840;2022-07-29T00:38:19;21.00;99.90
1225;DHT22;602;48.000;7.840;2022-07-29T00:40:47;21.00;99.90
1225;DHT22;602;48.000;7.840;2022-07-29T00:43:14;21.00;99.90
1225;DHT22;602;48.000;7.840;2022-07-29T00:45:41;20.90;99.90
1225;DHT22;602;48.000;7.840;2022-07-29T00:48:08;20.90;99.90
1225;DHT22;602;48.000;7.840;2022-07-29T00:50:37;20.90;99.90
1225;DHT22;602;48.000;7.840;2022-07-29T00:53:05;20.90;99.90
1225;DHT22;602;48.000;7.840;2022-07-29T00:55:33;20.90;99.90
1225;DHT22;602;48.000;7.840;2022-07-29T00:58:00;20.90;99.90
1225;DHT22;602;48.000;7.840;2022-07-29T01:00:28;21.00;99.90
1225;DHT22;602;48.000;7.840;2022-07-29T01:02:55;21.00;99.90
1225;DHT22;602;48.000;7.840;2022-07-29T01:05:26;20.90;99.90
1225;DHT22;602;48.000;7.840;2022-07-29T01:07:57;20.90;99.90
1225;DHT22;602;48.000;7.840;2022-07-29T01:10:26;21.00;99.90
1225;DHT22;602;48.000;7.840;2022-07-29T01:12:54;21.00;99.90
1225;DHT22;602;48.000;7.840;2022-07-29T01:15:23;20.90;99.90
1225;DHT22;602;48.000;7.840;2022-07-29T01:17:55;20.90;99.90
1225;DHT22;602;48.000;7.840;2022-07-29T01:20:31;20.90;99.90
1225;DHT22;602;48.000;7.840;2022-07-29T01:26:33;20.70;99.90
1225;DHT22;602;48.000;7.840;2022-07-29T01:29:16;20.60;99.90
1225;DHT22;602;48.000;7.840;2022-07-29T01:31:47;20.50;99.90
1225;DHT22;602;48.000;7.840;2022-07-29T01:34:20;20.40;99.90
1225;DHT22;602;48.000;7.840;2022-07-29T01:36:51;20.40;99.90
1225;DHT22;602;48.000;7.840;2022-07-29T01:39:27;20.30;99.90
1225;DHT22;602;48.000;7.840;2022-07-29T01:41:59;20.30;99.90
1225;DHT22;602;48.000;7.840;2022-07-29T01:44:32;20.30;99.90
1225;DHT22;602;48.000;7.840;2022-07-29T01:47:07;20.30;99.90
1225;DHT22;602;48.000;7.840;2022-07-29T01:49:36;20.20;99.90
1225;DHT22;602;48.000;7.840;2022-07-29T01:52:13;20.20;99.90
1225;DHT22;602;48.000;7.840;2022-07-29T01:54:45;20.20;99.90
1225;DHT22;602;48.000;7.840;2022-07-29T01:57:18;20.20;99.90
1225;DHT22;602;48.000;7.840;2022-07-29T01:59:48;20.20;99.90
1225;DHT22;602;48.000;7.840;2022-07-29T02:02:18;20.20;99.90
1225;DHT22;602;48.000;7.840;2022-07-29T02:04:47;20.10;99.90
1225;DHT22;602;48.000;7.840;2022-07-29T02:07:19;20.20;99.90
1225;DHT22;602;48.000;7.840;2022-07-29T02:09:49;20.20;99.90
1225;DHT22;602;48.000;7.840;2022-07-29T02:12:18;20.30;99.90
1225;DHT22;602;48.000;7.840;2022-07-29T02:14:49;20.40;99.90
1225;DHT22;602;48.000;7.840;2022-07-29T02:17:22;20.40;99.90
1225;DHT22;602;48.000;7.840;2022-07-29T02:19:50;20.30;99.90
1225;DHT22;602;48.000;7.840;2022-07-29T02:22:18;20.30;99.90
1225;DHT22;602;48.000;7.840;2022-07-29T02:24:46;20.40;99.90
1225;DHT22;602;48.000;7.840;2022-07-29T02:27:14;20.40;99.90
1225;DHT22;602;48.000;7.840;2022-07-29T02:29:41;20.50;99.90
1225;DHT22;602;48.000;7.840;2022-07-29T02:32:11;20.60;99.90
1225;DHT22;602;48.000;7.840;2022-07-29T02:34:40;20.60;99.90
1225;DHT22;602;48.000;7.840;2022-07-29T02:37:11;20.60;99.90
1225;DHT22;602;48.000;7.840;2022-07-29T02:39:41;20.70;99.90
1225;DHT22;602;48.000;7.840;2022-07-29T02:42:12;20.60;99.90
1225;DHT22;602;48.000;7.840;2022-07-29T02:44:40;20.50;99.90
1225;DHT22;602;48.000;7.840;2022-07-29T02:47:12;20.50;99.90
1225;DHT22;602;48.000;7.840;2022-07-29T02:49:49;20.40;99.90
1225;DHT22;602;48.000;7.840;2022-07-29T02:52:21;20.30;99.90
1225;DHT22;602;48.000;7.840;2022-07-29T02:54:55;20.30;99.90
1225;DHT22;602;48.000;7.840;2022-07-29T02:57:31;20.30;99.90
1225;DHT22;602;48.000;7.840;2022-07-29T03:00:02;20.30;99.90
1225;DHT22;602;48.000;7.840;2022-07-29T03:02:34;20.20;99.90
1225;DHT22;602;48.000;7.840;2022-07-29T03:05:02;20.10;99.90
1225;DHT22;602;48.000;7.840;2022-07-29T03:07:29;20.00;99.90
1225;DHT22;602;48.000;7.840;2022-07-29T03:09:58;19.90;99.90
1225;DHT22;602;48.000;7.840;2022-07-29T03:12:25;19.80;99.90
1225;DHT22;602;48.000;7.840;2022-07-29T03:14:53;19.90;99.90
1225;DHT22;602;48.000;7.840;2022-07-29T03:17:20;19.90;99.90
1225;DHT22;602;48.000;7.840;2022-07-29T03:19:49;19.80;99.90
1225;DHT22;602;48.000;7.840;2022-07-29T03:22:16;19.80;99.90
1225;DHT22;602;48.000;7.840;2022-07-29T03:24:43;19.80;99.90
1225;DHT22;602;48.000;7.840;2022-07-29T03:27:10;19.70;99.90
1225;DHT22;602;48.000;7.840;2022-07-29T03:29:37;19.60;99.90
1225;DHT22;602;48.000;7.840;2022-07-29T03:32:05;19.60;99.90
1225;DHT22;602;48.000;7.840;2022-07-29T03:34:32;19.80;99.90
1225;DHT22;602;48.000;7.840;2022-07-29T03:37:00;19.80;99.90
1225;DHT22;602;48.000;7.840;2022-07-29T03:39:31;19.80;99.90
1225;DHT22;602;48.000;7.840;2022-07-29T03:41:59;19.90;99.90
1225;DHT22;602;48.000;7.840;2022-07-29T03:44:27;19.90;99.90
1225;DHT22;602;48.000;7.840;2022-07-29T03:46:57;20.10;99.90
1225;DHT22;602;48.000;7.840;2022-07-29T03:49:28;20.10;99.90
1225;DHT22;602;48.000;7.840;2022-07-29T03:51:56;20.20;99.90
1225;DHT22;602;48.000;7.840;2022-07-29T03:54:24;20.30;99.90
1225;DHT22;602;48.000;7.840;2022-07-29T03:56:52;20.20;99.90
1225;DHT22;602;48.000;7.840;2022-07-29T03:59:21;20.10;99.90
1225;DHT22;602;48.000;7.840;2022-07-29T04:01:49;20.10;99.90
1225;DHT22;602;48.000;7.840;2022-07-29T04:04:16;20.10;99.90
1225;DHT22;602;48.000;7.840;2022-07-29T04:06:45;20.00;99.90
1225;DHT22;602;48.000;7.840;2022-07-29T04:09:12;20.10;99.90
1225;DHT22;602;48.000;7.840;2022-07-29T04:11:41;20.20;99.90
1225;DHT22;602;48.000;7.840;2022-07-29T04:14:08;20.30;99.90
1225;DHT22;602;48.000;7.840;2022-07-29T04:16:35;20.30;99.90
1225;DHT22;602;48.000;7.840;2022-07-29T04:19:02;20.20;99.90
1225;DHT22;602;48.000;7.840;2022-07-29T04:21:28;20.20;99.90
1225;DHT22;602;48.000;7.840;2022-07-29T04:23:55;20.20;99.90
1225;DHT22;602;48.000;7.840;2022-07-29T04:26:22;20.30;99.90
1225;DHT22;602;48.000;7.840;2022-07-29T04:28:50;20.40;99.90
1225;DHT22;602;48.000;7.840;2022-07-29T04:31:17;20.30;99.90
1225;DHT22;602;48.000;7.840;2022-07-29T04:33:44;20.30;99.90
1225;DHT22;602;48.000;7.840;2022-07-29T04:36:11;20.20;99.90
1225;DHT22;602;48.000;7.840;2022-07-29T04:38:38;20.20;99.90
1225;DHT22;602;48.000;7.840;2022-07-29T04:41:05;20.20;99.90
1225;DHT22;602;48.000;7.840;2022-07-29T04:43:33;20.20;99.90
1225;DHT22;602;48.000;7.840;2022-07-29T04:46:02;20.30;99.90
1225;DHT22;602;48.000;7.840;2022-07-29T04:48:29;20.40;99.90
1225;DHT22;602;48.000;7.840;2022-07-29T04:50:56;20.40;99.90
1225;DHT22;602;48.000;7.840;2022-07-29T04:53:23;20.30;99.90
1225;DHT22;602;48.000;7.840;2022-07-29T04:55:50;20.40;99.90
1225;DHT22;602;48.000;7.840;2022-07-29T04:58:17;20.40;99.90
1225;DHT22;602;48.000;7.840;2022-07-29T05:00:43;20.40;99.90
1225;DHT22;602;48.000;7.840;2022-07-29T05:03:12;20.50;99.90
1225;DHT22;602;48.000;7.840;2022-07-29T05:05:38;20.60;99.90
1225;DHT22;602;48.000;7.840;2022-07-29T05:08:06;20.80;99.90
1225;DHT22;602;48.000;7.840;2022-07-29T05:10:33;20.90;99.90
1225;DHT22;602;48.000;7.840;2022-07-29T05:13:03;20.90;99.90
1225;DHT22;602;48.000;7.840;2022-07-29T05:15:30;21.00;99.90
1225;DHT22;602;48.000;7.840;2022-07-29T05:17:57;21.00;99.90
1225;DHT22;602;48.000;7.840;2022-07-29T05:20:25;21.10;99.90
1225;DHT22;602;48.000;7.840;2022-07-29T05:22:54;21.10;99.90
1225;DHT22;602;48.000;7.840;2022-07-29T05:25:20;21.10;99.90
1225;DHT22;602;48.000;7.840;2022-07-29T05:27:48;21.00;99.90
1225;DHT22;602;48.000;7.840;2022-07-29T05:30:14;21.20;99.90
1225;DHT22;602;48.000;7.840;2022-07-29T05:32:41;21.20;99.90
1225;DHT22;602;48.000;7.840;2022-07-29T05:35:09;21.10;99.90
1225;DHT22;602;48.000;7.840;2022-07-29T05:37:37;21.00;99.90
1225;DHT22;602;48.000;7.840;2022-07-29T05:40:05;21.10;99.90
1225;DHT22;602;48.000;7.840;2022-07-29T05:42:32;21.20;99.90
1225;DHT22;602;48.000;7.840;2022-07-29T05:44:59;21.20;99.90
1225;DHT22;602;48.000;7.840;2022-07-29T05:47:26;21.30;99.90
1225;DHT22;602;48.000;7.840;2022-07-29T05:49:53;21.30;99.90
1225;DHT22;602;48.000;7.840;2022-07-29T05:52:20;21.40;99.90
1225;DHT22;602;48.000;7.840;2022-07-29T05:54:49;21.40;99.90
1225;DHT22;602;48.000;7.840;2022-07-29T05:57:17;21.50;99.90
1225;DHT22;602;48.000;7.840;2022-07-29T05:59:44;21.60;99.90
1225;DHT22;602;48.000;7.840;2022-07-29T06:02:10;21.60;99.90
1225;DHT22;602;48.000;7.840;2022-07-29T06:04:37;21.70;99.90
1225;DHT22;602;48.000;7.840;2022-07-29T06:07:04;21.80;99.90
1225;DHT22;602;48.000;7.840;2022-07-29T06:09:31;21.80;99.90
1225;DHT22;602;48.000;7.840;2022-07-29T06:12:00;21.70;99.90
1225;DHT22;602;48.000;7.840;2022-07-29T06:14:27;21.80;99.90
1225;DHT22;602;48.000;7.840;2022-07-29T06:16:54;21.80;99.90
1225;DHT22;602;48.000;7.840;2022-07-29T06:19:21;21.90;99.90
1225;DHT22;602;48.000;7.840;2022-07-29T06:21:48;21.80;99.90
1225;DHT22;602;48.000;7.840;2022-07-29T06:24:15;21.90;99.90
1225;DHT22;602;48.000;7.840;2022-07-29T06:26:42;22.00;99.90
1225;DHT22;602;48.000;7.840;2022-07-29T06:29:11;22.10;99.90
1225;DHT22;602;48.000;7.840;2022-07-29T06:31:38;22.20;99.90
1225;DHT22;602;48.000;7.840;2022-07-29T06:34:05;22.30;99.90
1225;DHT22;602;48.000;7.840;2022-07-29T06:36:34;22.50;99.90
1225;DHT22;602;48.000;7.840;2022-07-29T06:39:04;22.60;99.90
1225;DHT22;602;48.000;7.840;2022-07-29T06:41:31;22.70;99.90
1225;DHT22;602;48.000;7.840;2022-07-29T06:43:58;22.60;99.90
1225;DHT22;602;48.000;7.840;2022-07-29T06:46:26;22.70;99.90
1225;DHT22;602;48.000;7.840;2022-07-29T06:48:54;22.70;99.90
1225;DHT22;602;48.000;7.840;2022-07-29T06:51:26;22.80;99.90
1225;DHT22;602;48.000;7.840;2022-07-29T06:53:57;22.90;99.90
1225;DHT22;602;48.000;7.840;2022-07-29T06:56:30;23.00;99.90
1225;DHT22;602;48.000;7.840;2022-07-29T06:59:05;23.10;99.90
1225;DHT22;602;48.000;7.840;2022-07-29T07:01:40;23.20;99.90
1225;DHT22;602;48.000;7.840;2022-07-29T07:04:17;23.30;99.90
1225;DHT22;602;48.000;7.840;2022-07-29T07:06:55;23.30;99.90
1225;DHT22;602;48.000;7.840;2022-07-29T07:09:37;23.50;99.90
1225;DHT22;602;48.000;7.840;2022-07-29T07:12:14;23.60;99.90
1225;DHT22;602;48.000;7.840;2022-07-29T07:14:50;23.60;99.90
1225;DHT22;602;48.000;7.840;2022-07-29T07:17:52;23.80;99.90
1225;DHT22;602;48.000;7.840;2022-07-29T07:20:55;23.90;99.90
1225;DHT22;602;48.000;7.840;2022-07-29T07:46:56;24.80;99.90
1225;DHT22;602;48.000;7.840;2022-07-29T07:49:23;24.80;99.90
1225;DHT22;602;48.000;7.840;2022-07-29T07:51:50;24.90;99.90
1225;DHT22;602;48.000;7.840;2022-07-29T07:54:18;24.90;99.90
1225;DHT22;602;48.000;7.840;2022-07-29T07:56:44;25.00;99.90
1225;DHT22;602;48.000;7.840;2022-07-29T07:59:14;24.90;99.90
1225;DHT22;602;48.000;7.840;2022-07-29T08:01:41;24.90;99.90
1225;DHT22;602;48.000;7.840;2022-07-29T08:04:09;24.90;99.90
1225;DHT22;602;48.000;7.840;2022-07-29T08:06:36;25.00;99.90
1225;DHT22;602;48.000;7.840;2022-07-29T08:09:03;25.00;99.90
1225;DHT22;602;48.000;7.840;2022-07-29T08:11:30;25.10;99.90
1225;DHT22;602;48.000;7.840;2022-07-29T08:13:57;25.10;99.90
1225;DHT22;602;48.000;7.840;2022-07-29T08:16:24;25.20;99.90
1225;DHT22;602;48.000;7.840;2022-07-29T08:18:51;25.30;99.90
1225;DHT22;602;48.000;7.840;2022-07-29T08:21:23;25.50;99.90
1225;DHT22;602;48.000;7.840;2022-07-29T08:23:51;25.60;99.90
1225;DHT22;602;48.000;7.840;2022-07-29T08:26:39;25.70;99.90
1225;DHT22;602;48.000;7.840;2022-07-29T08:29:06;25.70;99.90
1225;DHT22;602;48.000;7.840;2022-07-29T08:31:32;25.90;99.90
1225;DHT22;602;48.000;7.840;2022-07-29T08:33:59;26.00;99.90
1225;DHT22;602;48.000;7.840;2022-07-29T08:36:29;26.10;99.90
1225;DHT22;602;48.000;7.840;2022-07-29T08:38:56;26.10;99.90
1225;DHT22;602;48.000;7.840;2022-07-29T08:41:23;26.20;99.90
1225;DHT22;602;48.000;7.840;2022-07-29T08:43:50;26.30;99.90
1225;DHT22;602;48.000;7.840;2022-07-29T08:46:18;26.50;99.90
1225;DHT22;602;48.000;7.840;2022-07-29T08:48:45;26.70;99.90
1225;DHT22;602;48.000;7.840;2022-07-29T08:51:13;26.80;99.90
1225;DHT22;602;48.000;7.840;2022-07-29T08:53:43;26.80;99.90
1225;DHT22;602;48.000;7.840;2022-07-29T08:56:12;26.90;99.90
1225;DHT22;602;48.000;7.840;2022-07-29T08:58:40;27.00;99.90
1225;DHT22;602;48.000;7.840;2022-07-29T09:01:07;27.10;99.90
1225;DHT22;602;48.000;7.840;2022-07-29T09:03:36;27.20;99.90
1225;DHT22;602;48.000;7.840;2022-07-29T09:06:04;27.30;99.90
1225;DHT22;602;48.000;7.840;2022-07-29T09:08:32;27.40;99.90
1225;DHT22;602;48.000;7.840;2022-07-29T09:11:02;27.40;99.90
1225;DHT22;602;48.000;7.840;2022-07-29T09:13:29;27.40;99.90
1225;DHT22;602;48.000;7.840;2022-07-29T09:15:56;27.50;99.90
1225;DHT22;602;48.000;7.840;2022-07-29T09:18:36;27.50;99.90
1225;DHT22;602;48.000;7.840;2022-07-29T09:21:04;27.40;99.90
1225;DHT22;602;48.000;7.840;2022-07-29T09:24:04;27.50;99.90
1225;DHT22;602;48.000;7.840;2022-07-29T09:26:34;27.50;99.90
1225;DHT22;602;48.000;7.840;2022-07-29T09:29:08;27.50;99.90
1225;DHT22;602;48.000;7.840;2022-07-29T09:31:38;27.40;99.90
1225;DHT22;602;48.000;7.840;2022-07-29T09:34:06;27.50;99.90
1225;DHT22;602;48.000;7.840;2022-07-29T09:36:39;27.50;99.90
1225;DHT22;602;48.000;7.840;2022-07-29T09:39:06;27.60;99.90
1225;DHT22;602;48.000;7.840;2022-07-29T09:41:46;27.50;99.90
1225;DHT22;602;48.000;7.840;2022-07-29T09:44:13;27.50;99.90
1225;DHT22;602;48.000;7.840;2022-07-29T09:46:55;27.50;99.90
1225;DHT22;602;48.000;7.840;2022-07-29T09:49:22;27.50;99.90
1225;DHT22;602;48.000;7.840;2022-07-29T09:52:00;27.40;99.90
1225;DHT22;602;48.000;7.840;2022-07-29T09:54:27;27.60;99.90
1225;DHT22;602;48.000;7.840;2022-07-29T09:56:55;27.60;99.90
1225;DHT22;602;48.000;7.840;2022-07-29T09:59:22;27.60;99.90
1225;DHT22;602;48.000;7.840;2022-07-29T10:01:52;27.50;99.90
1225;DHT22;602;48.000;7.840;2022-07-29T10:04:19;27.50;99.90
1225;DHT22;602;48.000;7.840;2022-07-29T10:06:56;27.50;99.90
1225;DHT22;602;48.000;7.840;2022-07-29T10:09:23;27.40;99.90
1225;DHT22;602;48.000;7.840;2022-07-29T10:12:05;27.40;99.90
1225;DHT22;602;48.000;7.840;2022-07-29T10:14:33;27.50;99.90
1225;DHT22;602;48.000;7.840;2022-07-29T10:17:00;27.70;99.90
1225;DHT22;602;48.000;7.840;2022-07-29T10:19:28;27.70;99.90
1225;DHT22;602;48.000;7.840;2022-07-29T10:21:57;27.70;99.90
1225;DHT22;602;48.000;7.840;2022-07-29T10:24:25;27.70;99.90
1225;DHT22;602;48.000;7.840;2022-07-29T10:26:53;27.80;99.90
1225;DHT22;602;48.000;7.840;2022-07-29T10:29:22;27.90;99.90
1225;DHT22;602;48.000;7.840;2022-07-29T10:31:56;27.80;99.90
1225;DHT22;602;48.000;7.840;2022-07-29T10:34:36;27.80;99.90
1225;DHT22;602;48.000;7.840;2022-07-29T10:37:17;27.90;99.90
1225;DHT22;602;48.000;7.840;2022-07-29T10:39:54;28.00;99.90
1225;DHT22;602;48.000;7.840;2022-07-29T10:42:25;28.10;99.90
1225;DHT22;602;48.000;7.840;2022-07-29T10:44:54;28.20;99.90
1225;DHT22;602;48.000;7.840;2022-07-29T10:47:22;28.30;99.90
1225;DHT22;602;48.000;7.840;2022-07-29T10:49:56;28.30;99.90
1225;DHT22;602;48.000;7.840;2022-07-29T10:52:23;28.40;99.90
1225;DHT22;602;48.000;7.840;2022-07-29T10:54:53;28.40;99.90
1225;DHT22;602;48.000;7.840;2022-07-29T10:57:25;28.30;99.90
1225;DHT22;602;48.000;7.840;2022-07-29T11:00:29;28.30;99.90
1225;DHT22;602;48.000;7.840;2022-07-29T11:02:56;28.30;99.90
1225;DHT22;602;48.000;7.840;2022-07-29T11:05:24;28.40;99.90
1225;DHT22;602;48.000;7.840;2022-07-29T11:08:20;28.60;99.90
1225;DHT22;602;48.000;7.840;2022-07-29T11:10:49;28.70;99.90
1225;DHT22;602;48.000;7.840;2022-07-29T11:13:47;28.80;99.90
1225;DHT22;602;48.000;7.840;2022-07-29T11:16:18;28.80;99.90
1225;DHT22;602;48.000;7.840;2022-07-29T11:19:18;28.90;99.90
1225;DHT22;602;48.000;7.840;2022-07-29T11:21:45;29.00;99.90
1225;DHT22;602;48.000;7.840;2022-07-29T11:24:16;28.90;99.90
1225;DHT22;602;48.000;7.840;2022-07-29T11:26:44;29.00;99.90
1225;DHT22;602;48.000;7.840;2022-07-29T11:29:18;29.00;99.90
1225;DHT22;602;48.000;7.840;2022-07-29T11:31:49;28.90;99.90
1225;DHT22;602;48.000;7.840;2022-07-29T11:34:22;28.90;99.90
1225;DHT22;602;48.000;7.840;2022-07-29T11:37:21;28.80;99.90
1225;DHT22;602;48.000;7.840;2022-07-29T11:40:10;28.90;99.90
1225;DHT22;602;48.000;7.840;2022-07-29T11:42:46;28.90;99.90
1225;DHT22;602;48.000;7.840;2022-07-29T11:45:16;28.90;99.90
1225;DHT22;602;48.000;7.840;2022-07-29T11:47:53;28.90;99.90
1225;DHT22;602;48.000;7.840;2022-07-29T11:50:34;28.90;99.90
1225;DHT22;602;48.000;7.840;2022-07-29T11:53:05;28.80;99.90
1225;DHT22;602;48.000;7.840;2022-07-29T11:55:37;28.80;99.90
1225;DHT22;602;48.000;7.840;2022-07-29T11:58:05;28.70;99.90
1225;DHT22;602;48.000;7.840;2022-07-29T12:00:33;28.70;99.90
1225;DHT22;602;48.000;7.840;2022-07-29T12:03:04;28.70;99.90
1225;DHT22;602;48.000;7.840;2022-07-29T12:05:36;28.60;99.90
1225;DHT22;602;48.000;7.840;2022-07-29T12:08:12;28.60;99.90
1225;DHT22;602;48.000;7.840;2022-07-29T12:10:40;28.50;99.90
1225;DHT22;602;48.000;7.840;2022-07-29T12:13:08;28.50;99.90
1225;DHT22;602;48.000;7.840;2022-07-29T12:15:35;28.40;99.90
1225;DHT22;602;48.000;7.840;2022-07-29T12:18:17;28.40;99.90
1225;DHT22;602;48.000;7.840;2022-07-29T12:20:46;28.40;99.90
1225;DHT22;602;48.000;7.840;2022-07-29T12:23:14;28.30;99.90
1225;DHT22;602;48.000;7.840;2022-07-29T12:25:43;28.40;99.90
1225;DHT22;602;48.000;7.840;2022-07-29T12:28:12;28.40;99.90
1225;DHT22;602;48.000;7.840;2022-07-29T12:30:43;28.40;99.90
1225;DHT22;602;48.000;7.840;2022-07-29T12:33:17;28.40;99.90
1225;DHT22;602;48.000;7.840;2022-07-29T12:35:45;28.40;99.90
1225;DHT22;602;48.000;7.840;2022-07-29T12:38:14;28.30;99.90
1225;DHT22;602;48.000;7.840;2022-07-29T12:40:43;28.40;99.90
1225;DHT22;602;48.000;7.840;2022-07-29T12:43:12;28.40;99.90
1225;DHT22;602;48.000;7.840;2022-07-29T12:45:43;28.40;99.90
1225;DHT22;602;48.000;7.840;2022-07-29T12:48:10;28.20;99.90
1225;DHT22;602;48.000;7.840;2022-07-29T12:50:53;28.30;99.90
1225;DHT22;602;48.000;7.840;2022-07-29T12:53:21;28.20;99.90
1225;DHT22;602;48.000;7.840;2022-07-29T12:55:49;28.20;99.90
1225;DHT22;602;48.000;7.840;2022-07-29T12:58:32;28.20;99.90
1225;DHT22;602;48.000;7.840;2022-07-29T13:01:01;28.20;99.90
1225;DHT22;602;48.000;7.840;2022-07-29T13:03:28;28.10;99.90
1225;DHT22;602;48.000;7.840;2022-07-29T13:05:57;28.10;99.90
1225;DHT22;602;48.000;7.840;2022-07-29T13:08:24;28.10;99.90
1225;DHT22;602;48.000;7.840;2022-07-29T13:10:50;28.10;99.90
1225;DHT22;602;48.000;7.840;2022-07-29T13:13:17;28.10;99.90
1225;DHT22;602;48.000;7.840;2022-07-29T13:15:45;28.20;99.90
1225;DHT22;602;48.000;7.840;2022-07-29T13:18:29;28.30;99.90
1225;DHT22;602;48.000;7.840;2022-07-29T13:21:10;28.20;99.90
1225;DHT22;602;48.000;7.840;2022-07-29T13:23:37;28.10;99.90
1225;DHT22;602;48.000;7.840;2022-07-29T13:26:05;28.00;99.90
1225;DHT22;602;48.000;7.840;2022-07-29T13:28:33;28.00;99.90
1225;DHT22;602;48.000;7.840;2022-07-29T13:31:00;27.90;99.90
1225;DHT22;602;48.000;7.840;2022-07-29T13:33:27;27.90;99.90
1225;DHT22;602;48.000;7.840;2022-07-29T13:35:54;27.80;99.90
1225;DHT22;602;48.000;7.840;2022-07-29T13:38:22;27.80;99.90
1225;DHT22;602;48.000;7.840;2022-07-29T13:40:49;27.90;99.90
1225;DHT22;602;48.000;7.840;2022-07-29T13:43:16;28.00;99.90
1225;DHT22;602;48.000;7.840;2022-07-29T13:45:43;27.90;99.90
1225;DHT22;602;48.000;7.840;2022-07-29T13:48:10;28.00;99.90
1225;DHT22;602;48.000;7.840;2022-07-29T13:50:37;27.90;99.90
1225;DHT22;602;48.000;7.840;2022-07-29T13:53:04;28.00;99.90
1225;DHT22;602;48.000;7.840;2022-07-29T13:55:32;27.90;99.90
1225;DHT22;602;48.000;7.840;2022-07-29T13:57:59;27.70;99.90
1225;DHT22;602;48.000;7.840;2022-07-29T14:00:26;27.70;99.90
1225;DHT22;602;48.000;7.840;2022-07-29T14:02:54;27.80;99.90
1225;DHT22;602;48.000;7.840;2022-07-29T14:05:21;27.70;99.90
1225;DHT22;602;48.000;7.840;2022-07-29T14:07:48;27.70;99.90
1225;DHT22;602;48.000;7.840;2022-07-29T14:10:14;27.70;99.90
1225;DHT22;602;48.000;7.840;2022-07-29T14:12:43;27.60;99.90
1225;DHT22;602;48.000;7.840;2022-07-29T14:15:09;27.50;99.90
1225;DHT22;602;48.000;7.840;2022-07-29T14:17:36;27.50;99.90
1225;DHT22;602;48.000;7.840;2022-07-29T14:20:04;27.50;99.90
1225;DHT22;602;48.000;7.840;2022-07-29T14:22:31;27.40;99.90
1225;DHT22;602;48.000;7.840;2022-07-29T14:24:59;27.30;99.90
1225;DHT22;602;48.000;7.840;2022-07-29T14:27:25;27.20;99.90
1225;DHT22;602;48.000;7.840;2022-07-29T14:29:54;27.20;99.90
1225;DHT22;602;48.000;7.840;2022-07-29T14:32:20;27.20;99.90
1225;DHT22;602;48.000;7.840;2022-07-29T14:34:47;27.20;99.90
1225;DHT22;602;48.000;7.840;2022-07-29T14:37:14;27.10;99.90
1225;DHT22;602;48.000;7.840;2022-07-29T14:39:41;27.20;99.90
1225;DHT22;602;48.000;7.840;2022-07-29T14:42:08;27.20;99.90
1225;DHT22;602;48.000;7.840;2022-07-29T14:44:35;27.10;99.90
1225;DHT22;602;48.000;7.840;2022-07-29T14:47:03;27.20;99.90
1225;DHT22;602;48.000;7.840;2022-07-29T14:49:30;27.20;99.90
1225;DHT22;602;48.000;7.840;2022-07-29T14:51:57;27.20;99.90
1225;DHT22;602;48.000;7.840;2022-07-29T14:54:23;27.20;99.90
1225;DHT22;602;48.000;7.840;2022-07-29T14:56:50;27.20;99.90
1225;DHT22;602;48.000;7.840;2022-07-29T14:59:20;27.20;99.90
1225;DHT22;602;48.000;7.840;2022-07-29T15:01:47;27.10;99.90
1225;DHT22;602;48.000;7.840;2022-07-29T15:04:16;27.00;99.90
1225;DHT22;602;48.000;7.840;2022-07-29T15:06:43;27.10;99.90
1225;DHT22;602;48.000;7.840;2022-07-29T15:09:10;27.10;99.90
1225;DHT22;602;48.000;7.840;2022-07-29T15:11:37;27.20;99.90
1225;DHT22;602;48.000;7.840;2022-07-29T15:14:04;27.20;99.90
1225;DHT22;602;48.000;7.840;2022-07-29T15:16:31;27.10;99.90
1225;DHT22;602;48.000;7.840;2022-07-29T15:18:58;27.10;99.90
1225;DHT22;602;48.000;7.840;2022-07-29T15:21:26;27.10;99.90
1225;DHT22;602;48.000;7.840;2022-07-29T15:23:53;27.20;99.90
1225;DHT22;602;48.000;7.840;2022-07-29T15:26:20;27.20;99.90
1225;DHT22;602;48.000;7.840;2022-07-29T15:28:47;27.20;99.90
1225;DHT22;602;48.000;7.840;2022-07-29T15:31:14;27.20;99.90
1225;DHT22;602;48.000;7.840;2022-07-29T15:33:40;27.30;99.90
1225;DHT22;602;48.000;7.840;2022-07-29T15:36:07;27.20;99.90
1225;DHT22;602;48.000;7.840;2022-07-29T15:38:37;27.30;99.90
1225;DHT22;602;48.000;7.840;2022-07-29T15:41:05;27.40;99.90
1225;DHT22;602;48.000;7.840;2022-07-29T15:43:32;27.40;99.90
1225;DHT22;602;48.000;7.840;2022-07-29T15:46:01;27.50;99.90
1225;DHT22;602;48.000;7.840;2022-07-29T15:48:45;27.50;99.90
1225;DHT22;602;48.000;7.840;2022-07-29T15:51:12;27.50;99.90
1225;DHT22;602;48.000;7.840;2022-07-29T15:53:40;27.60;99.90
1225;DHT22;602;48.000;7.840;2022-07-29T15:56:07;27.50;99.90
1225;DHT22;602;48.000;7.840;2022-07-29T15:58:34;27.50;99.90
1225;DHT22;602;48.000;7.840;2022-07-29T16:01:00;27.40;99.90
1225;DHT22;602;48.000;7.840;2022-07-29T16:03:27;27.50;99.90
1225;DHT22;602;48.000;7.840;2022-07-29T16:05:54;27.50;99.90
1225;DHT22;602;48.000;7.840;2022-07-29T16:08:21;27.50;99.90
1225;DHT22;602;48.000;7.840;2022-07-29T16:10:49;27.50;99.90
1225;DHT22;602;48.000;7.840;2022-07-29T16:13:16;27.60;99.90
1225;DHT22;602;48.000;7.840;2022-07-29T16:15:44;27.80;99.90
1225;DHT22;602;48.000;7.840;2022-07-29T16:18:11;27.80;99.90
1225;DHT22;602;48.000;7.840;2022-07-29T16:20:38;27.70;99.90
1225;DHT22;602;48.000;7.840;2022-07-29T16:23:05;27.80;99.90
1225;DHT22;602;48.000;7.840;2022-07-29T16:25:34;27.80;99.60
1225;DHT22;602;48.000;7.840;2022-07-29T16:28:02;27.80;99.30
1225;DHT22;602;48.000;7.840;2022-07-29T16:30:29;27.80;99.10
1225;DHT22;602;48.000;7.840;2022-07-29T16:32:56;27.80;98.80
1225;DHT22;602;48.000;7.840;2022-07-29T16:35:23;27.80;98.50
1225;DHT22;602;48.000;7.840;2022-07-29T16:37:49;27.80;98.40
1225;DHT22;602;48.000;7.840;2022-07-29T16:40:16;27.80;98.30
1225;DHT22;602;48.000;7.840;2022-07-29T16:42:43;27.80;98.40
1225;DHT22;602;48.000;7.840;2022-07-29T16:45:11;27.80;97.90
1225;DHT22;602;48.000;7.840;2022-07-29T16:47:38;27.80;97.70
1225;DHT22;602;48.000;7.840;2022-07-29T16:50:06;27.80;98.10
1225;DHT22;602;48.000;7.840;2022-07-29T16:52:33;27.70;97.40
1225;DHT22;602;48.000;7.840;2022-07-29T16:55:00;27.70;97.40
1225;DHT22;602;48.000;7.840;2022-07-29T16:57:27;27.70;97.80
1225;DHT22;602;48.000;7.840;2022-07-29T16:59:54;27.60;97.60